sensor_id;sensor_type;location;lat;lon;timestamp;P1;durP1;ratioP1;P2;durP2;ratioP2
36303;SDS011;22335;49.800;8.596;2023-09-12T00:00:33;15.55;;;11.30;;
36303;SDS011;22335;49.800;8.596;2023-09-12T00:07:17;17.38;;;12.75;;
36303;SDS011;22335;49.800;8.596;2023-09-12T00:14:00;19.05;;;11.77;;
36303;SDS011;22335;49.800;8.596;2023-09-12T00:20:45;16.65;;;12.27;;
36303;SDS011;22335;49.800;8.596;2023-09-12T00:27:28;15.43;;;11.90;;
36303;SDS011;22335;49.800;8.596;2023-09-12T00:34:15;14.67;;;12.07;;
36303;SDS011;22335;49.800;8.596;2023-09-12T00:41:00;17.23;;;12.05;;
36303;SDS011;22335;49.800;8.596;2023-09-12T00:47:44;16.25;;;11.15;;
36303;SDS011;22335;49.800;8.596;2023-09-12T00:54:27;16.05;;;12.27;;
36303;SDS011;22335;49.800;8.596;2023-09-12T01:01:12;17.70;;;13.00;;
36303;SDS011;22335;49.800;8.596;2023-09-12T01:07:56;20.23;;;12.13;;
36303;SDS011;22335;49.800;8.596;2023-09-12T01:14:39;15.30;;;12.77;;
36303;SDS011;22335;49.800;8.596;2023-09-12T01:29:00;17.98;;;12.45;;
36303;SDS011;22335;49.800;8.596;2023-09-12T01:35:45;13.90;;;11.30;;
36303;SDS011;22335;49.800;8.596;2023-09-12T01:42:30;17.80;;;12.65;;
36303;SDS011;22335;49.800;8.596;2023-09-12T01:49:21;18.60;;;11.85;;
36303;SDS011;22335;49.800;8.596;2023-09-12T01:56:07;15.98;;;11.73;;
36303;SDS011;22335;49.800;8.596;2023-09-12T02:02:52;16.63;;;11.50;;
36303;SDS011;22335;49.800;8.596;2023-09-12T02:09:37;18.23;;;11.30;;
36303;SDS011;22335;49.800;8.596;2023-09-12T02:16:21;15.40;;;11.77;;
36303;SDS011;22335;49.800;8.596;2023-09-12T02:23:04;16.52;;;11.50;;
36303;SDS011;22335;49.800;8.596;2023-09-12T02:29:49;14.68;;;11.32;;
36303;SDS011;22335;49.800;8.596;2023-09-12T02:36:33;16.33;;;11.17;;
36303;SDS011;22335;49.800;8.596;2023-09-12T02:43:16;13.90;;;11.30;;
36303;SDS011;22335;49.800;8.596;2023-09-12T03:05:04;16.23;;;13.00;;
36303;SDS011;22335;49.800;8.596;2023-09-12T03:11:48;20.52;;;14.65;;
36303;SDS011;22335;49.800;8.596;2023-09-12T03:18:32;18.88;;;14.85;;
36303;SDS011;22335;49.800;8.596;2023-09-12T03:25:17;20.27;;;13.77;;
36303;SDS011;22335;49.800;8.596;2023-09-12T03:32:01;19.53;;;13.43;;
36303;SDS011;22335;49.800;8.596;2023-09-12T03:38:45;21.33;;;13.40;;
36303;SDS011;22335;49.800;8.596;2023-09-12T03:45:32;18.20;;;13.45;;
36303;SDS011;22335;49.800;8.596;2023-09-12T03:52:16;15.85;;;13.45;;
36303;SDS011;22335;49.800;8.596;2023-09-12T03:59:00;19.35;;;14.40;;
36303;SDS011;22335;49.800;8.596;2023-09-12T04:05:47;20.50;;;14.32;;
36303;SDS011;22335;49.800;8.596;2023-09-12T04:12:32;14.98;;;13.20;;
36303;SDS011;22335;49.800;8.596;2023-09-12T04:19:16;18.02;;;13.45;;
36303;SDS011;22335;49.800;8.596;2023-09-12T04:26:01;16.63;;;13.65;;
36303;SDS011;22335;49.800;8.596;2023-09-12T04:32:46;18.38;;;13.70;;
36303;SDS011;22335;49.800;8.596;2023-09-12T04:39:29;13.93;;;12.60;;
36303;SDS011;22335;49.800;8.596;2023-09-12T04:46:15;17.83;;;14.00;;
36303;SDS011;22335;49.800;8.596;2023-09-12T04:52:59;17.17;;;14.27;;
36303;SDS011;22335;49.800;8.596;2023-09-12T04:59:43;15.25;;;12.60;;
36303;SDS011;22335;49.800;8.596;2023-09-12T05:06:28;19.65;;;13.82;;
36303;SDS011;22335;49.800;8.596;2023-09-12T05:13:12;16.88;;;13.05;;
36303;SDS011;22335;49.800;8.596;2023-09-12T05:19:57;18.63;;;13.77;;
36303;SDS011;22335;49.800;8.596;2023-09-12T05:26:43;18.80;;;13.32;;
36303;SDS011;22335;49.800;8.596;2023-09-12T05:33:26;13.70;;;12.27;;
36303;SDS011;22335;49.800;8.596;2023-09-12T05:40:11;17.65;;;14.02;;
36303;SDS011;22335;49.800;8.596;2023-09-12T05:46:56;17.27;;;13.40;;
36303;SDS011;22335;49.800;8.596;2023-09-12T05:53:40;19.10;;;14.67;;
36303;SDS011;22335;49.800;8.596;2023-09-12T06:00:23;21.23;;;14.55;;
36303;SDS011;22335;49.800;8.596;2023-09-12T06:07:08;20.50;;;15.05;;
36303;SDS011;22335;49.800;8.596;2023-09-12T06:13:54;20.02;;;13.57;;
36303;SDS011;22335;49.800;8.596;2023-09-12T06:20:38;19.95;;;14.65;;
36303;SDS011;22335;49.800;8.596;2023-09-12T06:27:23;25.33;;;15.80;;
36303;SDS011;22335;49.800;8.596;2023-09-12T06:34:07;21.23;;;14.77;;
36303;SDS011;22335;49.800;8.596;2023-09-12T06:40:50;19.27;;;14.50;;
36303;SDS011;22335;49.800;8.596;2023-09-12T06:47:35;25.90;;;15.35;;
36303;SDS011;22335;49.800;8.596;2023-09-12T06:54:19;21.47;;;15.97;;
36303;SDS011;22335;49.800;8.596;2023-09-12T07:01:02;19.77;;;16.15;;
36303;SDS011;22335;49.800;8.596;2023-09-12T07:07:48;20.08;;;15.80;;
36303;SDS011;22335;49.800;8.596;2023-09-12T07:14:32;19.33;;;16.27;;
36303;SDS011;22335;49.800;8.596;2023-09-12T07:21:15;20.75;;;15.50;;
36303;SDS011;22335;49.800;8.596;2023-09-12T07:28:00;23.38;;;15.90;;
36303;SDS011;22335;49.800;8.596;2023-09-12T07:34:45;22.65;;;16.67;;
36303;SDS011;22335;49.800;8.596;2023-09-12T07:41:29;26.57;;;17.47;;
36303;SDS011;22335;49.800;8.596;2023-09-12T07:48:14;18.27;;;16.27;;
36303;SDS011;22335;49.800;8.596;2023-09-12T07:54:59;24.38;;;18.02;;
36303;SDS011;22335;49.800;8.596;2023-09-12T08:01:43;20.07;;;17.30;;
36303;SDS011;22335;49.800;8.596;2023-09-12T08:08:28;22.98;;;18.02;;
36303;SDS011;22335;49.800;8.596;2023-09-12T08:15:12;26.38;;;18.88;;
36303;SDS011;22335;49.800;8.596;2023-09-12T08:21:56;25.13;;;16.88;;
36303;SDS011;22335;49.800;8.596;2023-09-12T08:28:40;19.60;;;16.42;;
36303;SDS011;22335;49.800;8.596;2023-09-12T08:35:24;18.30;;;15.07;;
36303;SDS011;22335;49.800;8.596;2023-09-12T08:42:09;19.88;;;15.00;;
36303;SDS011;22335;49.800;8.596;2023-09-12T08:48:58;23.88;;;14.55;;
36303;SDS011;22335;49.800;8.596;2023-09-12T08:55:42;19.55;;;14.75;;
36303;SDS011;22335;49.800;8.596;2023-09-12T09:02:26;21.25;;;14.75;;
36303;SDS011;22335;49.800;8.596;2023-09-12T09:09:10;17.23;;;13.93;;
36303;SDS011;22335;49.800;8.596;2023-09-12T09:16:08;18.52;;;13.63;;
36303;SDS011;22335;49.800;8.596;2023-09-12T09:22:55;21.98;;;13.23;;
36303;SDS011;22335;49.800;8.596;2023-09-12T09:29:47;18.85;;;13.80;;
36303;SDS011;22335;49.800;8.596;2023-09-12T09:36:31;19.15;;;13.75;;
36303;SDS011;22335;49.800;8.596;2023-09-12T09:43:18;19.05;;;13.90;;
36303;SDS011;22335;49.800;8.596;2023-09-12T09:50:05;19.10;;;14.10;;
36303;SDS011;22335;49.800;8.596;2023-09-12T09:56:49;16.92;;;13.77;;
36303;SDS011;22335;49.800;8.596;2023-09-12T10:03:36;17.77;;;14.35;;
36303;SDS011;22335;49.800;8.596;2023-09-12T10:10:21;24.13;;;15.23;;
36303;SDS011;22335;49.800;8.596;2023-09-12T10:17:08;19.08;;;14.38;;
36303;SDS011;22335;49.800;8.596;2023-09-12T10:23:55;21.95;;;15.15;;
36303;SDS011;22335;49.800;8.596;2023-09-12T10:30:43;25.45;;;15.13;;
36303;SDS011;22335;49.800;8.596;2023-09-12T10:37:28;19.48;;;14.93;;
36303;SDS011;22335;49.800;8.596;2023-09-12T10:44:15;21.30;;;15.05;;
36303;SDS011;22335;49.800;8.596;2023-09-12T10:51:02;20.00;;;14.50;;
36303;SDS011;22335;49.800;8.596;2023-09-12T10:57:59;19.25;;;14.68;;
36303;SDS011;22335;49.800;8.596;2023-09-12T11:04:45;19.08;;;15.52;;
36303;SDS011;22335;49.800;8.596;2023-09-12T11:11:32;15.93;;;13.70;;
36303;SDS011;22335;49.800;8.596;2023-09-12T11:18:16;16.30;;;14.60;;
36303;SDS011;22335;49.800;8.596;2023-09-12T11:25:01;16.67;;;14.93;;
36303;SDS011;22335;49.800;8.596;2023-09-12T11:31:52;16.50;;;14.18;;
36303;SDS011;22335;49.800;8.596;2023-09-12T11:38:39;17.50;;;14.45;;
36303;SDS011;22335;49.800;8.596;2023-09-12T11:45:23;19.83;;;14.63;;
36303;SDS011;22335;49.800;8.596;2023-09-12T11:52:09;14.70;;;13.13;;
36303;SDS011;22335;49.800;8.596;2023-09-12T11:58:55;20.92;;;13.75;;
36303;SDS011;22335;49.800;8.596;2023-09-12T12:05:38;18.52;;;14.35;;
36303;SDS011;22335;49.800;8.596;2023-09-12T12:12:24;16.52;;;14.63;;
36303;SDS011;22335;49.800;8.596;2023-09-12T12:19:07;15.30;;;13.82;;
36303;SDS011;22335;49.800;8.596;2023-09-12T12:25:52;16.55;;;12.93;;
36303;SDS011;22335;49.800;8.596;2023-09-12T12:32:40;18.88;;;13.50;;
36303;SDS011;22335;49.800;8.596;2023-09-12T12:39:24;16.02;;;14.35;;
36303;SDS011;22335;49.800;8.596;2023-09-12T12:46:10;13.73;;;12.33;;
36303;SDS011;22335;49.800;8.596;2023-09-12T12:52:56;14.23;;;12.73;;
36303;SDS011;22335;49.800;8.596;2023-09-12T12:59:44;14.20;;;12.40;;
36303;SDS011;22335;49.800;8.596;2023-09-12T13:06:28;16.65;;;13.10;;
36303;SDS011;22335;49.800;8.596;2023-09-12T13:13:13;15.37;;;12.80;;
36303;SDS011;22335;49.800;8.596;2023-09-12T13:19:56;15.50;;;11.63;;
36303;SDS011;22335;49.800;8.596;2023-09-12T13:26:40;17.17;;;13.00;;
36303;SDS011;22335;49.800;8.596;2023-09-12T13:33:25;15.67;;;12.93;;
36303;SDS011;22335;49.800;8.596;2023-09-12T13:40:09;14.48;;;13.23;;
36303;SDS011;22335;49.800;8.596;2023-09-12T13:46:52;14.18;;;12.18;;
36303;SDS011;22335;49.800;8.596;2023-09-12T13:53:37;15.57;;;12.03;;
36303;SDS011;22335;49.800;8.596;2023-09-12T14:00:22;15.23;;;11.75;;
36303;SDS011;22335;49.800;8.596;2023-09-12T14:07:12;13.82;;;12.13;;
36303;SDS011;22335;49.800;8.596;2023-09-12T14:13:57;14.80;;;12.20;;
36303;SDS011;22335;49.800;8.596;2023-09-12T14:20:48;14.38;;;12.30;;
36303;SDS011;22335;49.800;8.596;2023-09-12T14:27:33;13.40;;;12.15;;
36303;SDS011;22335;49.800;8.596;2023-09-12T14:41:02;13.15;;;11.35;;
36303;SDS011;22335;49.800;8.596;2023-09-12T14:47:46;12.37;;;11.23;;
36303;SDS011;22335;49.800;8.596;2023-09-12T14:54:30;13.60;;;12.13;;
36303;SDS011;22335;49.800;8.596;2023-09-12T15:01:14;13.93;;;10.60;;
36303;SDS011;22335;49.800;8.596;2023-09-12T15:07:57;11.48;;;10.32;;
36303;SDS011;22335;49.800;8.596;2023-09-12T15:14:44;13.00;;;11.43;;
36303;SDS011;22335;49.800;8.596;2023-09-12T15:21:28;13.75;;;11.05;;
36303;SDS011;22335;49.800;8.596;2023-09-12T15:28:11;11.65;;;10.65;;
36303;SDS011;22335;49.800;8.596;2023-09-12T15:34:56;13.10;;;9.80;;
36303;SDS011;22335;49.800;8.596;2023-09-12T15:41:43;12.88;;;10.90;;
36303;SDS011;22335;49.800;8.596;2023-09-12T15:48:27;15.43;;;10.50;;
36303;SDS011;22335;49.800;8.596;2023-09-12T15:55:11;11.03;;;9.87;;
36303;SDS011;22335;49.800;8.596;2023-09-12T16:01:55;12.43;;;9.80;;
36303;SDS011;22335;49.800;8.596;2023-09-12T16:08:39;11.98;;;10.35;;
36303;SDS011;22335;49.800;8.596;2023-09-12T16:15:24;10.98;;;9.95;;
36303;SDS011;22335;49.800;8.596;2023-09-12T16:22:07;13.45;;;10.15;;
36303;SDS011;22335;49.800;8.596;2023-09-12T16:28:56;11.65;;;10.48;;
36303;SDS011;22335;49.800;8.596;2023-09-12T16:35:41;12.80;;;10.02;;
36303;SDS011;22335;49.800;8.596;2023-09-12T16:42:24;10.75;;;9.65;;
36303;SDS011;22335;49.800;8.596;2023-09-12T16:49:08;16.30;;;10.85;;
36303;SDS011;22335;49.800;8.596;2023-09-12T16:55:53;12.32;;;11.00;;
36303;SDS011;22335;49.800;8.596;2023-09-12T17:02:39;13.90;;;11.60;;
36303;SDS011;22335;49.800;8.596;2023-09-12T17:09:23;12.20;;;10.88;;
36303;SDS011;22335;49.800;8.596;2023-09-12T17:16:08;14.27;;;11.40;;
36303;SDS011;22335;49.800;8.596;2023-09-12T17:22:52;12.10;;;10.85;;
36303;SDS011;22335;49.800;8.596;2023-09-12T17:29:35;11.60;;;10.50;;
36303;SDS011;22335;49.800;8.596;2023-09-12T17:36:20;17.10;;;11.03;;
36303;SDS011;22335;49.800;8.596;2023-09-12T17:43:03;31.75;;;16.60;;
36303;SDS011;22335;49.800;8.596;2023-09-12T17:49:47;56.27;;;19.07;;
36303;SDS011;22335;49.800;8.596;2023-09-12T17:56:31;12.85;;;10.65;;
36303;SDS011;22335;49.800;8.596;2023-09-12T18:09:58;12.98;;;11.60;;
36303;SDS011;22335;49.800;8.596;2023-09-12T18:16:43;12.65;;;10.70;;
36303;SDS011;22335;49.800;8.596;2023-09-12T18:23:27;13.90;;;12.55;;
36303;SDS011;22335;49.800;8.596;2023-09-12T18:30:10;13.02;;;11.93;;
36303;SDS011;22335;49.800;8.596;2023-09-12T18:36:56;13.53;;;12.33;;
36303;SDS011;22335;49.800;8.596;2023-09-12T18:43:40;14.80;;;13.40;;
36303;SDS011;22335;49.800;8.596;2023-09-12T18:50:24;15.00;;;13.52;;
36303;SDS011;22335;49.800;8.596;2023-09-12T18:57:09;15.80;;;14.18;;
36303;SDS011;22335;49.800;8.596;2023-09-12T19:03:53;16.85;;;14.55;;
36303;SDS011;22335;49.800;8.596;2023-09-12T19:10:37;16.27;;;14.68;;
36303;SDS011;22335;49.800;8.596;2023-09-12T19:17:22;14.35;;;13.13;;
36303;SDS011;22335;49.800;8.596;2023-09-12T19:24:05;14.82;;;13.27;;
36303;SDS011;22335;49.800;8.596;2023-09-12T19:30:50;14.83;;;13.50;;
36303;SDS011;22335;49.800;8.596;2023-09-12T19:37:35;14.40;;;11.60;;
36303;SDS011;22335;49.800;8.596;2023-09-12T19:44:23;14.68;;;11.77;;
36303;SDS011;22335;49.800;8.596;2023-09-12T19:51:08;13.27;;;12.07;;
36303;SDS011;22335;49.800;8.596;2023-09-12T19:57:52;13.00;;;11.63;;
36303;SDS011;22335;49.800;8.596;2023-09-12T20:04:36;13.10;;;11.90;;
36303;SDS011;22335;49.800;8.596;2023-09-12T20:11:20;14.23;;;12.82;;
36303;SDS011;22335;49.800;8.596;2023-09-12T20:18:05;12.63;;;11.43;;
36303;SDS011;22335;49.800;8.596;2023-09-12T20:24:50;13.88;;;12.20;;
36303;SDS011;22335;49.800;8.596;2023-09-12T20:31:34;12.10;;;11.05;;
36303;SDS011;22335;49.800;8.596;2023-09-12T20:38:19;10.65;;;9.65;;
36303;SDS011;22335;49.800;8.596;2023-09-12T20:45:02;11.95;;;10.00;;
36303;SDS011;22335;49.800;8.596;2023-09-12T20:51:47;9.03;;;8.17;;
36303;SDS011;22335;49.800;8.596;2023-09-12T20:58:33;8.53;;;7.73;;
36303;SDS011;22335;49.800;8.596;2023-09-12T21:05:17;8.95;;;7.40;;
36303;SDS011;22335;49.800;8.596;2023-09-12T21:12:00;9.95;;;7.45;;
36303;SDS011;22335;49.800;8.596;2023-09-12T21:18:47;7.70;;;7.10;;
36303;SDS011;22335;49.800;8.596;2023-09-12T21:25:30;8.52;;;7.20;;
36303;SDS011;22335;49.800;8.596;2023-09-12T21:32:13;7.85;;;7.15;;
36303;SDS011;22335;49.800;8.596;2023-09-12T21:38:59;8.77;;;8.13;;
36303;SDS011;22335;49.800;8.596;2023-09-12T21:45:44;9.40;;;8.25;;
36303;SDS011;22335;49.800;8.596;2023-09-12T21:52:28;10.85;;;8.23;;
36303;SDS011;22335;49.800;8.596;2023-09-12T21:59:12;11.55;;;8.82;;
36303;SDS011;22335;49.800;8.596;2023-09-12T22:05:59;10.73;;;9.52;;
36303;SDS011;22335;49.800;8.596;2023-09-12T22:12:42;10.50;;;9.15;;
36303;SDS011;22335;49.800;8.596;2023-09-12T22:19:28;11.38;;;9.27;;
36303;SDS011;22335;49.800;8.596;2023-09-12T22:26:12;11.95;;;10.55;;
36303;SDS011;22335;49.800;8.596;2023-09-12T22:32:56;10.73;;;9.30;;
36303;SDS011;22335;49.800;8.596;2023-09-12T22:39:41;10.43;;;8.10;;
36303;SDS011;22335;49.800;8.596;2023-09-12T22:46:24;12.20;;;7.60;;
36303;SDS011;22335;49.800;8.596;2023-09-12T22:53:08;11.55;;;8.20;;
36303;SDS011;22335;49.800;8.596;2023-09-12T22:59:52;15.38;;;9.13;;
36303;SDS011;22335;49.800;8.596;2023-09-12T23:06:36;8.90;;;8.17;;
36303;SDS011;22335;49.800;8.596;2023-09-12T23:13:19;9.02;;;7.85;;
36303;SDS011;22335;49.800;8.596;2023-09-12T23:20:05;7.93;;;7.28;;
36303;SDS011;22335;49.800;8.596;2023-09-12T23:26:53;10.48;;;8.85;;
36303;SDS011;22335;49.800;8.596;2023-09-12T23:33:36;9.93;;;8.32;;
36303;SDS011;22335;49.800;8.596;2023-09-12T23:40:21;9.23;;;8.43;;
36303;SDS011;22335;49.800;8.596;2023-09-12T23:47:05;10.03;;;9.03;;
36303;SDS011;22335;49.800;8.596;2023-09-12T23:53:48;9.73;;;8.82;;
